createdAt,value
2018-12-21T00:01:26.647Z,7.30
2018-12-21T00:03:55.015Z,7.40
2018-12-21T00:06:23.338Z,7.40
2018-12-21T00:08:51.785Z,7.40
2018-12-21T00:11:20.122Z,7.40
2018-12-21T00:13:48.475Z,7.40
2018-12-21T00:16:16.819Z,7.40
2018-12-21T00:18:45.157Z,7.40
2018-12-21T00:21:21.642Z,7.50
2018-12-21T00:23:43.878Z,7.40
2018-12-21T00:26:12.215Z,7.40
2018-12-21T00:28:40.585Z,7.50
2018-12-21T00:31:14.292Z,7.40
2018-12-21T00:33:48.030Z,7.40
2018-12-21T00:36:21.733Z,7.40
2018-12-21T00:38:55.714Z,7.40
2018-12-21T00:41:23.285Z,7.40
2018-12-21T00:43:57.735Z,7.50
2018-12-21T00:46:28.118Z,7.40
2018-12-21T00:48:56.765Z,7.50
2018-12-21T00:51:30.194Z,7.50
2018-12-21T00:53:55.469Z,7.50
2018-12-21T00:56:23.792Z,7.50
2018-12-21T00:58:52.229Z,7.40
2018-12-21T01:01:20.629Z,7.40
2018-12-21T01:03:49.006Z,7.30
2018-12-21T01:06:17.417Z,7.40
2018-12-21T01:08:45.763Z,7.40
2018-12-21T01:11:14.215Z,7.40
2018-12-21T01:13:42.525Z,7.40
2018-12-21T01:16:10.902Z,7.40
2018-12-21T01:18:39.237Z,7.50
2018-12-21T01:21:07.829Z,7.60
2018-12-21T01:23:36.167Z,7.50
2018-12-21T01:26:04.534Z,7.50
2018-12-21T01:28:32.860Z,7.50
2018-12-21T01:31:01.208Z,7.50
2018-12-21T01:33:29.589Z,7.50
2018-12-21T01:35:58.003Z,7.50
2018-12-21T01:38:26.330Z,7.40
2018-12-21T01:40:54.676Z,7.50
2018-12-21T01:43:23.095Z,7.40
2018-12-21T01:45:51.474Z,7.50
2018-12-21T01:48:19.818Z,7.50
2018-12-21T01:50:48.185Z,7.50
2018-12-21T01:53:16.509Z,7.50
2018-12-21T01:55:44.851Z,7.50
2018-12-21T01:58:13.183Z,7.60
2018-12-21T02:00:41.647Z,7.50
2018-12-21T02:03:09.958Z,7.60
2018-12-21T02:05:38.301Z,7.60
2018-12-21T02:08:06.685Z,7.60
2018-12-21T02:10:35.107Z,7.50
2018-12-21T02:13:03.540Z,7.50
2018-12-21T02:15:31.894Z,7.50
2018-12-21T02:18:00.221Z,7.40
2018-12-21T02:20:28.592Z,7.40
2018-12-21T02:22:56.910Z,7.40
2018-12-21T02:25:25.262Z,7.40
2018-12-21T02:27:53.590Z,7.50
2018-12-21T02:30:22.059Z,7.40
2018-12-21T02:32:50.414Z,7.40
2018-12-21T02:35:18.755Z,7.50
2018-12-21T02:37:47.426Z,7.50
2018-12-21T02:40:15.786Z,7.50
2018-12-21T02:42:44.112Z,7.50
2018-12-21T02:45:12.459Z,7.50
2018-12-21T02:47:40.807Z,7.50
2018-12-21T02:50:09.284Z,7.50
2018-12-21T02:52:37.597Z,7.50
2018-12-21T02:55:06.194Z,7.50
2018-12-21T02:57:34.639Z,7.50
2018-12-21T03:00:04.522Z,7.50
2018-12-21T03:02:32.941Z,7.60
2018-12-21T03:05:01.306Z,7.60
2018-12-21T03:07:29.627Z,7.50
2018-12-21T03:09:57.979Z,7.50
2018-12-21T03:12:26.307Z,7.50
2018-12-21T03:14:54.670Z,7.60
2018-12-21T03:17:22.998Z,7.50
2018-12-21T03:19:51.462Z,7.60
2018-12-21T03:22:19.794Z,7.50
2018-12-21T03:24:48.131Z,7.50
2018-12-21T03:27:16.468Z,7.50
2018-12-21T03:29:44.840Z,7.50
2018-12-21T03:32:13.180Z,7.60
2018-12-21T03:34:41.532Z,7.60
2018-12-21T03:37:09.886Z,7.60
2018-12-21T03:39:38.244Z,7.60
2018-12-21T03:42:06.602Z,7.60
2018-12-21T03:44:34.941Z,7.60
2018-12-21T03:47:03.299Z,7.60
2018-12-21T03:49:31.655Z,7.60
2018-12-21T03:51:59.996Z,7.60
2018-12-21T03:54:28.326Z,7.60
2018-12-21T03:56:56.668Z,7.60
2018-12-21T03:59:24.986Z,7.60
2018-12-21T04:01:53.399Z,7.60
2018-12-21T04:04:21.714Z,7.50
2018-12-21T04:06:50.096Z,7.60
2018-12-21T04:09:18.431Z,7.60
2018-12-21T04:11:46.819Z,7.60
2018-12-21T04:14:15.150Z,7.60
2018-12-21T04:16:43.657Z,7.60
2018-12-21T04:19:12.002Z,7.70
2018-12-21T04:21:40.647Z,7.80
2018-12-21T04:24:08.970Z,7.80
2018-12-21T04:26:37.310Z,7.80
2018-12-21T04:29:05.649Z,7.80
2018-12-21T04:31:34.000Z,7.80
2018-12-21T04:34:02.326Z,7.80
2018-12-21T04:36:30.687Z,7.90
2018-12-21T04:38:59.031Z,7.90
2018-12-21T04:41:27.363Z,7.90
2018-12-21T04:43:55.704Z,7.90
2018-12-21T04:46:24.056Z,7.80
2018-12-21T04:48:52.412Z,7.80
2018-12-21T04:51:20.892Z,7.80
2018-12-21T04:53:49.220Z,7.80
2018-12-21T04:56:17.585Z,7.80
2018-12-21T04:58:45.991Z,7.90
2018-12-21T05:01:14.336Z,7.90
2018-12-21T05:03:42.656Z,8.00
2018-12-21T05:06:11.010Z,8.00
2018-12-21T05:08:39.336Z,8.10
2018-12-21T05:11:07.702Z,8.10
2018-12-21T05:13:36.058Z,8.10
2018-12-21T05:16:04.434Z,8.10
2018-12-21T05:18:32.774Z,8.10
2018-12-21T05:21:01.154Z,8.00
2018-12-21T05:23:29.480Z,7.90
2018-12-21T05:25:57.885Z,7.80
2018-12-21T05:28:26.226Z,7.70
2018-12-21T05:30:54.582Z,7.60
2018-12-21T05:33:22.987Z,7.60
2018-12-21T05:35:51.357Z,7.50
2018-12-21T05:38:19.847Z,7.40
2018-12-21T05:40:48.209Z,7.40
2018-12-21T05:43:16.574Z,7.30
2018-12-21T05:45:44.902Z,7.30
2018-12-21T05:48:13.222Z,7.30
2018-12-21T05:50:41.584Z,7.30
2018-12-21T05:53:09.923Z,7.20
2018-12-21T05:55:38.269Z,7.10
2018-12-21T05:58:06.621Z,7.10
2018-12-21T06:00:34.980Z,7.00
2018-12-21T06:03:03.318Z,7.00
2018-12-21T06:05:31.638Z,7.00
2018-12-21T06:07:59.989Z,6.90
2018-12-21T06:10:28.319Z,6.90
2018-12-21T06:12:56.646Z,6.90
2018-12-21T06:15:25.291Z,6.80
2018-12-21T06:17:53.609Z,6.80
2018-12-21T06:20:22.049Z,6.80
2018-12-21T06:22:50.401Z,6.80
2018-12-21T06:25:18.837Z,6.80
2018-12-21T06:27:47.181Z,6.80
2018-12-21T06:30:15.615Z,6.80
2018-12-21T06:32:43.954Z,6.90
2018-12-21T06:35:12.317Z,6.80
2018-12-21T06:37:40.659Z,6.80
2018-12-21T06:40:09.035Z,6.80
2018-12-21T06:42:37.395Z,6.80
2018-12-21T06:45:06.362Z,6.80
2018-12-21T06:47:34.751Z,6.70
2018-12-21T06:50:03.424Z,6.80
2018-12-21T06:52:32.037Z,6.80
2018-12-21T06:55:00.401Z,6.80
2018-12-21T06:57:28.725Z,6.80
2018-12-21T06:59:57.069Z,6.80
2018-12-21T07:02:25.410Z,6.80
2018-12-21T07:04:53.735Z,6.80
2018-12-21T07:07:22.262Z,6.90
2018-12-21T07:09:50.611Z,6.90
2018-12-21T07:12:18.933Z,6.90
2018-12-21T07:14:47.257Z,6.90
2018-12-21T07:17:15.622Z,7.00
2018-12-21T07:19:43.942Z,7.00
2018-12-21T07:22:12.269Z,7.00
2018-12-21T07:24:40.620Z,7.00
2018-12-21T07:27:09.294Z,7.00
2018-12-21T07:29:37.628Z,7.10
2018-12-21T07:32:06.050Z,7.10
2018-12-21T07:34:34.888Z,7.10
2018-12-21T07:37:03.626Z,7.10
2018-12-21T07:39:32.384Z,7.10
2018-12-21T07:42:01.052Z,7.10
2018-12-21T07:44:29.379Z,7.10
2018-12-21T07:46:57.718Z,7.20
2018-12-21T07:49:26.068Z,7.20
2018-12-21T07:51:54.393Z,7.20
2018-12-21T07:54:22.745Z,7.20
2018-12-21T07:56:51.117Z,7.30
2018-12-21T07:59:19.426Z,7.30
2018-12-21T08:01:48.607Z,7.30
2018-12-21T08:04:17.030Z,7.30
2018-12-21T08:06:45.350Z,7.40
2018-12-21T08:09:13.920Z,7.40
2018-12-21T08:11:42.506Z,7.40
2018-12-21T08:14:10.862Z,7.40
2018-12-21T08:16:39.387Z,7.40
2018-12-21T08:19:07.734Z,7.40
2018-12-21T08:21:36.054Z,7.50
2018-12-21T08:24:04.399Z,7.50
2018-12-21T08:26:32.741Z,7.50
2018-12-21T08:29:01.170Z,7.50
2018-12-21T08:31:29.527Z,7.50
2018-12-21T08:33:57.846Z,7.50
2018-12-21T08:36:26.193Z,7.50
2018-12-21T08:38:54.556Z,7.50
2018-12-21T08:41:22.892Z,7.40
2018-12-21T08:43:51.327Z,7.40
2018-12-21T08:46:19.650Z,7.40
2018-12-21T08:48:48.010Z,7.30
2018-12-21T08:51:16.630Z,7.40
2018-12-21T08:53:52.373Z,7.40
2018-12-21T08:56:15.478Z,7.30
2018-12-21T08:58:43.810Z,7.40
2018-12-21T09:01:12.228Z,7.40
2018-12-21T09:03:40.614Z,7.40
2018-12-21T09:06:08.966Z,7.40
2018-12-21T09:08:37.367Z,7.30
2018-12-21T09:11:05.722Z,7.40
2018-12-21T09:13:34.081Z,7.40
2018-12-21T09:16:03.234Z,7.40
2018-12-21T09:18:31.616Z,7.40
2018-12-21T09:21:00.011Z,7.40
2018-12-21T09:23:28.343Z,7.40
2018-12-21T09:25:56.664Z,7.40
2018-12-21T09:28:25.619Z,7.50
2018-12-21T09:30:54.014Z,7.50
2018-12-21T09:33:22.359Z,7.50
2018-12-21T09:35:51.432Z,7.50
2018-12-21T09:38:19.775Z,7.60
2018-12-21T09:40:48.212Z,7.60
2018-12-21T09:43:16.748Z,7.50
2018-12-21T09:45:45.188Z,7.50
2018-12-21T09:48:13.556Z,7.50
2018-12-21T09:50:44.091Z,7.60
2018-12-21T09:53:12.432Z,7.60
2018-12-21T09:55:40.782Z,7.60
2018-12-21T09:58:09.199Z,7.60
2018-12-21T10:00:37.534Z,7.60
2018-12-21T10:03:05.883Z,7.70
2018-12-21T10:05:35.225Z,7.70
2018-12-21T10:08:03.843Z,7.70
2018-12-21T10:10:32.351Z,7.70
2018-12-21T10:13:01.522Z,7.80
2018-12-21T10:15:30.041Z,7.70
2018-12-21T10:17:59.035Z,7.80
2018-12-21T10:20:27.511Z,7.80
2018-12-21T10:22:55.918Z,7.90
2018-12-21T10:25:24.304Z,7.90
2018-12-21T10:27:52.669Z,7.90
2018-12-21T10:30:21.209Z,7.90
2018-12-21T10:32:51.295Z,7.90
2018-12-21T10:35:19.710Z,8.00
2018-12-21T10:37:48.049Z,8.10
2018-12-21T10:40:16.394Z,8.10
2018-12-21T10:42:46.590Z,8.20
2018-12-21T10:45:14.994Z,8.10
2018-12-21T10:47:44.249Z,8.10
2018-12-21T10:50:12.605Z,8.20
2018-12-21T10:52:41.332Z,8.20
2018-12-21T10:55:10.386Z,8.20
2018-12-21T10:57:39.060Z,8.20
2018-12-21T11:00:12.085Z,8.20
2018-12-21T11:02:40.542Z,8.20
2018-12-21T11:05:10.359Z,8.20
2018-12-21T11:07:40.128Z,8.20
2018-12-21T11:10:11.951Z,8.20
2018-12-21T11:12:40.959Z,8.30
2018-12-21T11:15:10.930Z,8.30
2018-12-21T11:17:40.849Z,8.30
2018-12-21T11:20:10.661Z,8.30
2018-12-21T11:22:39.002Z,8.40
2018-12-21T11:25:10.548Z,8.40
2018-12-21T11:27:40.655Z,8.50
2018-12-21T11:30:09.495Z,8.50
2018-12-21T11:32:37.875Z,8.50
2018-12-21T11:35:06.811Z,8.60
2018-12-21T11:37:35.267Z,8.70
2018-12-21T11:40:03.843Z,8.70
2018-12-21T11:42:32.248Z,8.80
2018-12-21T11:45:00.627Z,8.80
2018-12-21T11:47:28.997Z,8.90
2018-12-21T11:49:57.470Z,8.90
2018-12-21T11:52:26.027Z,8.90
2018-12-21T11:54:54.572Z,9.00
2018-12-21T11:57:23.182Z,9.00
2018-12-21T11:59:51.617Z,9.00
2018-12-21T12:02:19.980Z,9.10
2018-12-21T12:04:49.158Z,9.10
2018-12-21T12:07:17.603Z,9.20
2018-12-21T12:09:46.097Z,9.20
2018-12-21T12:12:14.694Z,9.30
2018-12-21T12:14:43.442Z,9.30
2018-12-21T12:17:11.975Z,9.40
2018-12-21T12:19:40.670Z,9.40
2018-12-21T12:22:09.005Z,9.40
2018-12-21T12:24:37.967Z,9.40
2018-12-21T12:27:06.425Z,9.50
2018-12-21T12:29:35.263Z,9.50
2018-12-21T12:32:03.866Z,9.50
2018-12-21T12:34:32.460Z,9.50
2018-12-21T12:37:01.487Z,9.60
2018-12-21T12:39:30.071Z,9.60
2018-12-21T12:41:58.413Z,9.60
2018-12-21T12:44:27.309Z,9.60
2018-12-21T12:46:55.692Z,9.60
2018-12-21T12:49:24.580Z,9.60
2018-12-21T12:51:52.954Z,9.60
2018-12-21T12:54:21.723Z,9.60
2018-12-21T12:56:50.234Z,9.60
2018-12-21T12:59:18.536Z,9.60
2018-12-21T13:01:47.335Z,9.70
2018-12-21T13:04:15.710Z,9.70
2018-12-21T13:06:44.007Z,9.70
2018-12-21T13:09:12.330Z,9.70
2018-12-21T13:11:40.665Z,9.80
2018-12-21T13:14:09.184Z,9.80
2018-12-21T13:16:37.473Z,9.80
2018-12-21T13:19:05.857Z,9.80
2018-12-21T13:21:34.225Z,9.90
2018-12-21T13:24:03.091Z,9.90
2018-12-21T13:26:31.496Z,9.90
2018-12-21T13:28:59.847Z,9.90
2018-12-21T13:31:28.709Z,10.00
2018-12-21T13:33:57.254Z,10.00
2018-12-21T13:36:25.879Z,10.10
2018-12-21T13:38:54.663Z,10.10
2018-12-21T13:41:23.127Z,10.10
2018-12-21T13:43:51.815Z,10.10
2018-12-21T13:46:20.213Z,10.10
2018-12-21T13:48:48.564Z,10.00
2018-12-21T13:51:16.943Z,10.00
2018-12-21T13:53:45.242Z,10.10
2018-12-21T13:56:14.818Z,10.10
2018-12-21T13:58:43.490Z,10.10
2018-12-21T14:01:12.278Z,10.10
2018-12-21T14:03:40.644Z,10.10
2018-12-21T14:06:09.025Z,10.10
2018-12-21T14:08:37.335Z,10.10
2018-12-21T14:11:05.679Z,10.10
2018-12-21T14:13:34.009Z,10.10
2018-12-21T14:16:02.334Z,10.10
2018-12-21T14:18:30.645Z,10.10
2018-12-21T14:20:58.990Z,10.20
2018-12-21T14:23:27.297Z,10.20
2018-12-21T14:26:18.439Z,10.20
2018-12-21T14:28:46.760Z,10.20
2018-12-21T14:31:15.120Z,10.30
2018-12-21T14:33:43.523Z,10.30
2018-12-21T14:36:14.049Z,10.30
2018-12-21T14:38:42.639Z,10.30
2018-12-21T14:41:16.739Z,10.30
2018-12-21T14:43:46.959Z,10.30
2018-12-21T14:46:15.774Z,10.40
2018-12-21T14:48:45.079Z,10.40
2018-12-21T14:51:14.100Z,10.40
2018-12-21T14:53:42.827Z,10.40
2018-12-21T14:56:11.394Z,10.50
2018-12-21T14:58:40.896Z,10.50
2018-12-21T15:01:10.109Z,10.50
2018-12-21T15:06:19.178Z,10.50
2018-12-21T15:08:47.498Z,10.60
2018-12-21T15:11:18.041Z,10.60
2018-12-21T15:13:49.456Z,10.50
2018-12-21T15:16:18.534Z,10.50
2018-12-21T15:18:47.753Z,10.60
2018-12-21T15:21:17.005Z,10.60
2018-12-21T15:23:46.084Z,10.60
2018-12-21T15:26:14.978Z,10.60
2018-12-21T15:28:43.406Z,10.60
2018-12-21T15:31:11.763Z,10.60
2018-12-21T15:33:41.009Z,10.60
2018-12-21T15:36:09.416Z,10.50
2018-12-21T15:38:37.739Z,10.50
2018-12-21T15:41:06.198Z,10.40
2018-12-21T15:43:34.500Z,10.50
2018-12-21T15:46:03.097Z,10.50
2018-12-21T15:48:31.648Z,10.50
2018-12-21T15:51:00.073Z,10.40
2018-12-21T15:53:28.612Z,10.50
2018-12-21T15:55:56.907Z,10.50
2018-12-21T15:58:25.401Z,10.40
2018-12-21T16:00:53.764Z,10.40
2018-12-21T16:03:22.148Z,10.50
2018-12-21T16:05:50.522Z,10.50
2018-12-21T16:08:19.039Z,10.50
2018-12-21T16:10:47.348Z,10.50
2018-12-21T16:13:15.733Z,10.60
2018-12-21T16:15:44.059Z,10.60
2018-12-21T16:18:12.436Z,10.60
2018-12-21T16:20:40.751Z,10.60
2018-12-21T16:23:09.109Z,10.60
2018-12-21T16:25:37.442Z,10.70
2018-12-21T16:28:05.789Z,10.70
2018-12-21T16:30:34.124Z,10.70
2018-12-21T16:33:03.169Z,10.70
2018-12-21T16:35:31.538Z,10.70
2018-12-21T16:38:00.027Z,10.70
2018-12-21T16:40:28.869Z,10.70
2018-12-21T16:42:57.238Z,10.70
2018-12-21T16:45:25.571Z,10.80
2018-12-21T16:47:53.955Z,10.80
2018-12-21T16:50:22.294Z,10.80
2018-12-21T16:52:50.656Z,10.80
2018-12-21T16:55:19.115Z,10.80
2018-12-21T16:57:47.428Z,10.90
2018-12-21T17:00:15.968Z,10.90
2018-12-21T17:02:44.600Z,10.90
2018-12-21T17:05:13.288Z,10.90
2018-12-21T17:07:41.788Z,11.00
2018-12-21T17:10:18.824Z,10.90
2018-12-21T17:12:47.480Z,11.00
2018-12-21T17:15:15.896Z,11.00
2018-12-21T17:17:44.230Z,11.00
2018-12-21T17:20:12.598Z,11.00
2018-12-21T17:22:41.031Z,11.00
2018-12-21T17:25:12.344Z,11.10
2018-12-21T17:27:40.743Z,11.10
2018-12-21T17:30:11.112Z,11.00
2018-12-21T17:32:39.460Z,11.10
2018-12-21T17:35:08.977Z,11.10
2018-12-21T17:37:38.122Z,11.10
2018-12-21T17:40:09.030Z,11.10
2018-12-21T17:42:37.361Z,11.10
2018-12-21T17:45:08.040Z,11.20
2018-12-21T17:47:36.395Z,11.20
2018-12-21T17:50:05.992Z,11.20
2018-12-21T17:52:34.337Z,11.20
2018-12-21T17:55:02.638Z,11.20
2018-12-21T17:57:30.951Z,11.20
2018-12-21T17:59:59.334Z,11.20
2018-12-21T18:02:27.627Z,11.30
2018-12-21T18:04:55.978Z,11.30
2018-12-21T18:07:24.316Z,11.30
2018-12-21T18:09:52.691Z,11.30
2018-12-21T18:12:21.214Z,11.40
2018-12-21T18:14:49.787Z,11.40
2018-12-21T18:17:18.078Z,11.30
2018-12-21T18:19:46.412Z,11.40
2018-12-21T18:22:20.162Z,11.30
2018-12-21T18:24:53.017Z,11.40
2018-12-21T18:27:21.393Z,11.40
2018-12-21T18:29:49.735Z,11.40
2018-12-21T18:32:22.530Z,11.40
2018-12-21T18:34:50.940Z,11.40
2018-12-21T18:37:19.269Z,11.40
2018-12-21T18:39:47.577Z,11.40
2018-12-21T18:42:15.992Z,11.40
2018-12-21T18:44:44.352Z,11.40
2018-12-21T18:47:12.711Z,11.40
2018-12-21T18:49:41.039Z,11.40
2018-12-21T18:52:09.359Z,11.40
2018-12-21T18:54:37.770Z,11.50
2018-12-21T18:57:11.292Z,11.40
2018-12-21T18:59:39.738Z,11.50
2018-12-21T19:02:08.354Z,11.50
2018-12-21T19:04:36.747Z,11.50
2018-12-21T19:07:05.360Z,11.50
2018-12-21T19:09:33.714Z,11.50
2018-12-21T19:12:02.175Z,11.50
2018-12-21T19:14:30.501Z,11.50
2018-12-21T19:16:58.867Z,11.50
2018-12-21T19:19:27.218Z,11.50
2018-12-21T19:21:56.118Z,11.50
2018-12-21T19:24:24.473Z,11.50
2018-12-21T19:26:55.826Z,11.50
2018-12-21T19:29:23.183Z,11.50
2018-12-21T19:31:51.505Z,11.50
2018-12-21T19:34:19.889Z,11.50
2018-12-21T19:36:48.210Z,11.60
2018-12-21T19:39:16.695Z,11.50
2018-12-21T19:41:45.332Z,11.60
2018-12-21T19:44:13.699Z,11.60
2018-12-21T19:46:42.938Z,11.60
2018-12-21T19:49:11.325Z,11.60
2018-12-21T19:51:39.870Z,11.60
2018-12-21T19:54:09.725Z,11.60
2018-12-21T19:56:52.693Z,11.60
2018-12-21T19:59:21.067Z,11.50
2018-12-21T20:01:49.410Z,11.50
2018-12-21T20:04:17.716Z,11.50
2018-12-21T20:06:46.023Z,11.50
2018-12-21T20:09:14.372Z,11.50
2018-12-21T20:11:43.103Z,11.50
2018-12-21T20:14:11.604Z,11.50
2018-12-21T20:16:40.041Z,11.50
2018-12-21T20:19:08.707Z,11.50
2018-12-21T20:21:37.072Z,11.50
2018-12-21T20:24:05.477Z,11.50
2018-12-21T20:26:34.249Z,11.60
2018-12-21T20:29:02.563Z,11.60
2018-12-21T20:31:30.916Z,11.60
2018-12-21T20:33:59.216Z,11.60
2018-12-21T20:36:27.651Z,11.60
2018-12-21T20:38:56.047Z,11.60
2018-12-21T20:41:24.343Z,11.60
2018-12-21T20:43:52.714Z,11.60
2018-12-21T20:46:21.083Z,11.60
2018-12-21T20:48:49.403Z,11.60
2018-12-21T20:51:17.758Z,11.60
2018-12-21T20:53:46.047Z,11.50
2018-12-21T20:56:14.422Z,11.50
2018-12-21T20:58:46.773Z,11.50
2018-12-21T21:01:15.084Z,11.50
2018-12-21T21:03:43.438Z,11.50
2018-12-21T21:06:11.796Z,11.50
2018-12-21T21:08:40.450Z,11.40
2018-12-21T21:11:09.035Z,11.50
2018-12-21T21:13:37.429Z,11.50
2018-12-21T21:16:05.807Z,11.50
2018-12-21T21:18:34.167Z,11.50
2018-12-21T21:21:03.136Z,11.50
2018-12-21T21:23:31.478Z,11.50
2018-12-21T21:25:59.835Z,11.50
2018-12-21T21:28:29.300Z,11.50
2018-12-21T21:30:57.693Z,11.50
2018-12-21T21:33:26.057Z,11.40
2018-12-21T21:35:54.358Z,11.50
2018-12-21T21:38:22.713Z,11.40
2018-12-21T21:40:51.445Z,11.40
2018-12-21T21:43:21.177Z,11.40
2018-12-21T21:45:51.979Z,11.40
2018-12-21T21:48:20.270Z,11.40
2018-12-21T21:50:48.632Z,11.40
2018-12-21T21:53:17.052Z,11.30
2018-12-21T21:55:45.404Z,11.30
2018-12-21T21:58:13.781Z,11.40
2018-12-21T22:00:42.137Z,11.30
2018-12-21T22:03:10.451Z,11.40
2018-12-21T22:05:38.766Z,11.40
2018-12-21T22:08:07.117Z,11.40
2018-12-21T22:10:35.419Z,11.30
2018-12-21T22:13:03.781Z,11.30
2018-12-21T22:15:32.350Z,11.30
2018-12-21T22:18:00.662Z,11.40
2018-12-21T22:20:28.969Z,11.40
2018-12-21T22:22:57.331Z,11.40
2018-12-21T22:25:25.655Z,11.30
2018-12-21T22:27:53.962Z,11.30
2018-12-21T22:30:22.319Z,11.30
2018-12-21T22:32:50.653Z,11.30
2018-12-21T22:35:18.994Z,11.30
2018-12-21T22:37:47.340Z,11.30
2018-12-21T22:40:15.680Z,11.30
2018-12-21T22:42:44.102Z,11.30
2018-12-21T22:45:12.470Z,11.30
2018-12-21T22:47:40.794Z,11.30
2018-12-21T22:50:09.517Z,11.30
2018-12-21T22:52:38.029Z,11.30
2018-12-21T22:55:07.773Z,11.20
2018-12-21T22:57:36.201Z,11.20
2018-12-21T23:00:09.441Z,11.20
2018-12-21T23:02:37.755Z,11.20
2018-12-21T23:05:06.175Z,11.10
2018-12-21T23:07:34.512Z,11.20
2018-12-21T23:10:02.827Z,11.20
2018-12-21T23:12:31.191Z,11.10
2018-12-21T23:14:59.498Z,11.20
2018-12-21T23:17:28.278Z,11.10
2018-12-21T23:19:56.607Z,11.10
2018-12-21T23:22:25.012Z,11.20
2018-12-21T23:24:53.330Z,11.10
2018-12-21T23:27:22.071Z,11.20
2018-12-21T23:29:50.442Z,11.30
2018-12-21T23:32:18.778Z,11.30
2018-12-21T23:34:47.116Z,11.30
2018-12-21T23:37:15.431Z,11.30
2018-12-21T23:39:43.743Z,11.40
2018-12-21T23:42:12.074Z,11.40
2018-12-21T23:44:40.469Z,11.40
2018-12-21T23:47:09.758Z,11.40
2018-12-21T23:49:38.152Z,11.40
2018-12-21T23:52:06.465Z,11.40
2018-12-21T23:54:34.786Z,11.50
2018-12-21T23:57:03.606Z,11.40
2018-12-21T23:59:32.110Z,11.40
